Time;durP1;ratioP1;P1;durP2;ratioP2;P2;SDS_P1;SDS_P2;PMS_P1;PMS_P2;Temp;Humidity;BMP_temperature;BMP_pressure;BME280_temperature;BME280_humidity;BME280_pressure;Samples;Min_cycle;Max_cycle;Signal;HPM_P1;HPM_P2
2022/05/21 00:01:02;;;;;;;5.55;2.78;;;24.60;53.50;;;;;;6285864;27;81650;-73
2022/05/21 00:04:03;;;;;;;4.30;2.67;;;24.60;53.40;;;;;;6286545;27;80296;-73
2022/05/21 00:07:03;;;;;;;3.05;2.65;;;24.60;53.50;;;;;;6286386;27;80682;-74
2022/05/21 00:10:04;;;;;;;5.60;2.83;;;24.60;53.50;;;;;;6286362;27;80332;-74
2022/05/21 00:13:04;;;;;;;4.90;3.30;;;24.60;53.50;;;;;;6286242;27;81112;-74
2022/05/21 00:16:05;;;;;;;7.95;2.80;;;24.60;53.40;;;;;;6279071;27;80618;-71
2022/05/21 00:19:07;;;;;;;3.90;2.40;;;24.60;53.40;;;;;;6285238;27;80145;-72
2022/05/21 00:22:07;;;;;;;4.07;2.92;;;24.60;53.40;;;;;;6283443;27;80205;-72
2022/05/21 00:25:08;;;;;;;4.70;2.95;;;24.60;53.30;;;;;;6286162;27;80397;-73
2022/05/21 00:28:08;;;;;;;4.00;2.47;;;24.60;53.30;;;;;;6285044;27;80702;-71
2022/05/21 00:31:09;;;;;;;3.15;2.28;;;24.60;53.20;;;;;;6285848;27;80436;-71
2022/05/21 00:34:09;;;;;;;2.72;1.90;;;24.60;53.50;;;;;;6285800;27;80605;-71
2022/05/21 00:37:10;;;;;;;5.72;3.10;;;24.60;53.40;;;;;;6285143;27;80441;-72
2022/05/21 00:40:10;;;;;;;4.53;2.33;;;24.60;53.40;;;;;;6285675;27;80509;-72
2022/05/21 00:43:11;;;;;;;3.72;2.60;;;24.60;53.50;;;;;;6285092;27;80554;-71
2022/05/21 00:46:12;;;;;;;4.30;2.80;;;24.60;53.50;;;;;;6285601;27;80327;-70
2022/05/21 00:49:13;;;;;;;3.70;2.30;;;24.60;53.60;;;;;;6286685;27;80876;-71
2022/05/21 00:52:13;;;;;;;7.30;2.42;;;24.60;53.50;;;;;;6288102;27;80578;-70
2022/05/21 00:55:14;;;;;;;3.10;2.15;;;24.60;53.50;;;;;;6291158;27;80240;-71
2022/05/21 01:01:34;;;;;;;2.47;2.00;;;24.60;53.60;;;;;;6289895;27;80665;-72
2022/05/21 01:04:34;;;;;;;2.70;2.08;;;24.60;53.70;;;;;;6285066;27;80365;-72
2022/05/21 01:07:35;;;;;;;4.20;2.05;;;24.60;53.70;;;;;;6285136;27;81061;-73
2022/05/21 01:10:35;;;;;;;2.38;1.73;;;24.60;53.70;;;;;;6284974;27;80353;-72
2022/05/21 01:13:36;;;;;;;2.10;1.90;;;24.60;53.70;;;;;;6284817;27;80578;-72
2022/05/21 01:16:36;;;;;;;3.45;2.00;;;24.60;53.70;;;;;;6284340;27;80519;-73
2022/05/21 01:19:37;;;;;;;2.28;1.90;;;24.60;53.70;;;;;;6282728;27;80551;-71
2022/05/21 01:22:38;;;;;;;2.20;2.00;;;24.60;53.70;;;;;;6284503;27;82202;-71
2022/05/21 01:25:39;;;;;;;3.03;2.13;;;24.60;53.60;;;;;;6283710;27;80695;-72
2022/05/21 01:28:40;;;;;;;3.15;1.90;;;24.60;53.60;;;;;;6284848;27;80574;-72
2022/05/21 01:31:40;;;;;;;2.47;1.73;;;24.60;53.60;;;;;;6281264;27;80812;-72
2022/05/21 01:34:41;;;;;;;3.45;2.20;;;24.60;53.60;;;;;;6284098;27;82512;-72
2022/05/21 01:37:41;;;;;;;5.47;2.30;;;24.50;53.50;;;;;;6284331;27;80960;-74
2022/05/21 01:40:42;;;;;;;14.25;2.65;;;24.50;53.60;;;;;;6284482;27;80411;-72
2022/05/21 01:47:02;;;;;;;2.85;1.80;;;24.60;53.60;;;;;;6280445;27;80640;-72
2022/05/21 01:50:02;;;;;;;3.72;2.45;;;24.60;53.50;;;;;;6284258;27;80840;-72
2022/05/21 01:53:03;;;;;;;3.67;1.73;;;24.60;53.50;;;;;;6283752;27;80557;-72
2022/05/21 01:56:03;;;;;;;2.28;1.65;;;24.60;53.40;;;;;;6284336;27;80968;-72
2022/05/21 01:59:04;;;;;;;1.77;1.67;;;24.60;53.40;;;;;;6283790;27;80234;-71
2022/05/21 02:02:05;;;;;;;2.25;1.77;;;24.60;53.30;;;;;;6267419;27;80423;-70
2022/05/21 02:05:05;;;;;;;1.67;1.42;;;24.50;53.40;;;;;;6282469;27;81881;-70
2022/05/21 02:08:06;;;;;;;2.03;1.45;;;24.60;53.40;;;;;;6281605;27;83008;-71
2022/05/21 02:11:07;;;;;;;2.42;1.83;;;24.60;53.40;;;;;;6283546;27;81385;-70
2022/05/21 02:14:07;;;;;;;2.00;1.80;;;24.60;53.40;;;;;;6278066;27;80263;-70
2022/05/21 02:17:08;;;;;;;2.67;1.75;;;24.50;53.40;;;;;;6282333;27;80888;-71
2022/05/21 02:20:08;;;;;;;2.97;1.92;;;24.50;53.40;;;;;;6282264;27;81471;-72
2022/05/21 02:23:09;;;;;;;1.98;1.55;;;24.60;53.40;;;;;;6283529;27;80223;-71
2022/05/21 02:26:09;;;;;;;2.10;1.63;;;24.60;53.40;;;;;;6283831;27;80904;-71
2022/05/21 02:29:10;;;;;;;2.15;1.75;;;24.60;53.40;;;;;;6276793;27;80451;-71
2022/05/21 02:32:12;;;;;;;2.45;1.77;;;24.50;53.60;;;;;;6282731;27;81727;-70
2022/05/21 02:35:14;;;;;;;1.88;1.77;;;24.50;53.60;;;;;;6283384;27;80841;-71
2022/05/21 02:41:35;;;;;;;2.53;1.80;;;24.60;53.60;;;;;;6283283;27;80310;-73
2022/05/21 02:44:35;;;;;;;2.97;1.77;;;24.50;53.40;;;;;;6282947;27;80378;-75
2022/05/21 02:47:36;;;;;;;1.95;1.75;;;24.60;53.50;;;;;;6283210;27;80348;-73
2022/05/21 02:50:36;;;;;;;1.98;1.60;;;24.50;53.50;;;;;;6283381;27;80390;-74
2022/05/21 02:53:37;;;;;;;1.60;1.50;;;24.50;53.30;;;;;;6284798;27;80154;-73
2022/05/21 02:56:37;;;;;;;1.60;1.50;;;24.60;53.20;;;;;;6293611;27;80274;-74
2022/05/21 02:59:38;;;;;;;2.17;1.58;;;24.50;53.40;;;;;;6297880;27;80338;-74
2022/05/21 03:02:39;;;;;;;1.50;1.40;;;24.60;53.20;;;;;;6296315;27;80842;-73
2022/05/21 03:05:39;;;;;;;5.28;1.40;;;24.60;53.20;;;;;;6284008;27;82185;-72
2022/05/21 03:11:59;;;;;;;2.15;1.70;;;24.50;53.20;;;;;;6282398;27;81090;-73
2022/05/21 03:15:00;;;;;;;2.20;1.90;;;24.50;53.40;;;;;;6280607;27;82138;-72
2022/05/21 03:18:02;;;;;;;14.55;1.83;;;24.50;53.60;;;;;;6282071;27;80316;-73
2022/05/21 03:21:03;;;;;;;2.05;1.38;;;24.60;53.30;;;;;;6280713;27;83181;-72
2022/05/21 03:24:03;;;;;;;2.10;1.58;;;24.60;53.30;;;;;;6278683;27;81947;-73
2022/05/21 03:27:05;;;;;;;2.03;1.48;;;24.60;53.00;;;;;;6276540;27;80241;-73
2022/05/21 03:30:06;;;;;;;3.08;1.50;;;24.60;53.20;;;;;;6285067;27;80644;-74
2022/05/21 03:33:06;;;;;;;2.78;1.30;;;24.60;53.20;;;;;;6287067;27;80757;-74
2022/05/21 03:36:08;;;;;;;2.15;1.95;;;24.60;53.20;;;;;;6286911;27;80196;-72
2022/05/21 03:39:09;;;;;;;2.67;1.92;;;24.60;53.20;;;;;;6264422;27;80127;-72
2022/05/21 03:42:09;;;;;;;2.50;1.88;;;24.50;53.20;;;;;;6287041;27;80621;-72
2022/05/21 03:45:10;;;;;;;1.85;1.65;;;24.60;53.30;;;;;;6283785;27;80553;-72
2022/05/21 03:48:11;;;;;;;1.95;1.45;;;24.60;53.40;;;;;;6286613;27;81625;-72
2022/05/21 03:51:12;;;;;;;2.13;1.67;;;24.60;53.30;;;;;;6287233;27;80249;-73
2022/05/21 03:54:12;;;;;;;2.03;1.65;;;24.60;53.40;;;;;;6286933;27;80086;-71
2022/05/21 03:57:15;;;;;;;2.00;1.58;;;24.60;53.50;;;;;;6286279;27;80559;-71
2022/05/21 04:00:16;;;;;;;1.70;1.30;;;24.60;53.40;;;;;;6286024;27;80285;-73
2022/05/21 04:03:17;;;;;;;1.40;1.30;;;24.60;53.30;;;;;;6286475;27;80349;-73
2022/05/21 04:06:18;;;;;;;2.03;1.60;;;24.60;53.10;;;;;;6279666;27;81480;-73
2022/05/21 04:09:18;;;;;;;1.55;1.40;;;24.60;53.30;;;;;;6276877;27;87807;-71
2022/05/21 04:12:19;;;;;;;2.10;1.60;;;24.60;53.20;;;;;;6270406;27;80397;-69
2022/05/21 04:15:20;;;;;;;1.30;1.20;;;24.60;53.60;;;;;;6280983;27;80807;-70
2022/05/21 04:18:22;;;;;;;1.40;1.30;;;24.60;53.50;;;;;;6269195;27;80099;-72
2022/05/21 04:21:23;;;;;;;2.47;1.30;;;24.60;53.50;;;;;;6283508;27;80345;-72
2022/05/21 04:24:24;;;;;;;2.90;1.75;;;24.60;53.40;;;;;;6286709;27;80856;-72
2022/05/21 04:27:24;;;;;;;2.10;1.45;;;24.60;53.80;;;;;;6286921;27;80631;-75
2022/05/21 04:30:26;;;;;;;1.90;1.60;;;24.60;53.60;;;;;;6286238;27;81782;-75
2022/05/21 04:33:27;;;;;;;1.83;1.50;;;24.60;53.80;;;;;;6286176;27;80447;-75
2022/05/21 04:36:29;;;;;;;6.50;1.70;;;24.60;53.70;;;;;;6268736;27;80386;-76
2022/05/21 04:39:30;;;;;;;3.13;1.40;;;24.60;54.00;;;;;;6266703;27;82084;-73
2022/05/21 04:42:31;;;;;;;1.60;1.27;;;24.60;54.00;;;;;;6263302;27;80370;-73
2022/05/21 04:45:31;;;;;;;3.22;1.67;;;24.70;54.10;;;;;;6273483;27;80718;-67
2022/05/21 04:48:32;;;;;;;1.77;1.30;;;24.60;54.10;;;;;;6284083;27;80466;-72
2022/05/21 04:51:32;;;;;;;1.65;1.55;;;24.60;54.40;;;;;;6285408;27;81382;-68
2022/05/21 04:54:33;;;;;;;4.07;1.48;;;24.60;54.60;;;;;;6284641;27;80347;-65
2022/05/21 04:57:33;;;;;;;2.30;1.80;;;24.60;54.70;;;;;;6270361;27;80864;-73
2022/05/21 05:00:34;;;;;;;3.65;1.60;;;24.60;54.50;;;;;;6283351;27;86446;-67
2022/05/21 05:03:34;;;;;;;3.63;1.40;;;24.70;54.20;;;;;;6287348;27;80889;-72
2022/05/21 05:06:36;;;;;;;3.55;1.95;;;24.70;54.20;;;;;;6282714;27;80350;-67
2022/05/21 05:09:36;;;;;;;3.80;1.75;;;24.70;54.30;;;;;;6285651;27;80525;-68
2022/05/21 05:12:37;;;;;;;4.70;1.75;;;24.70;54.30;;;;;;6285368;27;80376;-66
2022/05/21 05:15:37;;;;;;;5.80;1.98;;;24.70;54.50;;;;;;6284517;27;81142;-69
2022/05/21 05:18:38;;;;;;;4.93;2.47;;;24.70;54.70;;;;;;6284844;27;80029;-68
2022/05/21 05:21:39;;;;;;;6.78;2.38;;;24.60;55.40;;;;;;6277886;27;80272;-67
2022/05/21 05:24:39;;;;;;;6.47;1.83;;;24.60;55.70;;;;;;6284321;27;82173;-71
2022/05/21 05:27:40;;;;;;;9.35;2.60;;;24.60;56.00;;;;;;6284744;27;80442;-67
2022/05/21 05:30:40;;;;;;;5.07;2.40;;;24.50;56.00;;;;;;6284462;27;80181;-67
2022/05/21 05:33:41;;;;;;;5.15;2.03;;;24.40;57.20;;;;;;6283669;27;80326;-68
2022/05/21 05:36:41;;;;;;;6.80;2.47;;;24.40;57.70;;;;;;6269644;27;80196;-66
2022/05/21 05:39:42;;;;;;;9.43;3.28;;;24.40;57.50;;;;;;6265333;27;81030;-66
2022/05/21 05:42:42;;;;;;;11.60;3.53;;;24.40;58.70;;;;;;6264091;27;80883;-67
2022/05/21 05:45:43;;;;;;;10.82;3.72;;;24.40;59.40;;;;;;6275163;27;81590;-66
2022/05/21 05:48:45;;;;;;;8.85;3.55;;;24.40;60.40;;;;;;6284097;27;80140;-69
2022/05/21 05:51:46;;;;;;;13.50;3.22;;;24.40;61.10;;;;;;6283787;27;80312;-67
2022/05/21 05:54:46;;;;;;;7.68;3.65;;;24.40;60.30;;;;;;6279118;27;80394;-68
2022/05/21 05:57:47;;;;;;;9.30;3.47;;;24.40;62.20;;;;;;6283662;27;80931;-67
2022/05/21 06:00:47;;;;;;;14.15;3.90;;;24.40;62.70;;;;;;6274223;27;80393;-65
2022/05/21 06:03:48;;;;;;;9.27;3.75;;;24.40;62.70;;;;;;6281462;27;80616;-68
2022/05/21 06:06:49;;;;;;;6.43;3.10;;;24.40;63.00;;;;;;6283214;27;81694;-69
2022/05/21 06:09:50;;;;;;;9.43;3.28;;;24.40;63.50;;;;;;6283588;27;80828;-69
2022/05/21 06:12:50;;;;;;;18.35;4.35;;;24.40;65.20;;;;;;6283806;27;80589;-69
2022/05/21 06:15:51;;;;;;;11.88;3.58;;;24.30;65.00;;;;;;6281226;27;80849;-69
2022/05/21 06:18:51;;;;;;;9.40;3.10;;;24.30;66.80;;;;;;6270802;27;80707;-68
2022/05/21 06:21:52;;;;;;;7.50;3.25;;;24.30;67.20;;;;;;6273528;27;80794;-71
2022/05/21 06:24:52;;;;;;;5.45;2.88;;;24.20;68.40;;;;;;6279917;27;83136;-70
2022/05/21 06:27:53;;;;;;;9.85;3.40;;;24.30;68.20;;;;;;6270781;27;80518;-66
2022/05/21 06:30:54;;;;;;;11.30;3.45;;;24.20;68.20;;;;;;6267730;27;80313;-68
2022/05/21 06:33:55;;;;;;;9.23;2.92;;;24.10;68.50;;;;;;6269283;27;80487;-68
2022/05/21 06:36:55;;;;;;;6.65;3.53;;;24.00;70.30;;;;;;6275944;27;81469;-68
2022/05/21 06:39:56;;;;;;;9.45;3.75;;;24.10;70.80;;;;;;6283449;27;80412;-69
2022/05/21 06:43:00;;;;;;;14.77;6.60;;;24.10;70.30;;;;;;6270408;27;80859;-70
2022/05/21 06:46:01;;;;;;;16.15;6.10;;;24.10;71.30;;;;;;6260452;27;80139;-69
2022/05/21 06:49:01;;;;;;;17.58;4.53;;;24.10;70.90;;;;;;6260589;27;81121;-68
2022/05/21 06:52:02;;;;;;;7.95;4.43;;;24.20;70.60;;;;;;6268765;27;80727;-69
2022/05/21 06:55:02;;;;;;;9.60;4.47;;;24.10;72.10;;;;;;6257968;27;80268;-70
2022/05/21 06:58:03;;;;;;;12.25;4.60;;;24.20;70.80;;;;;;6263627;27;80855;-69
2022/05/21 07:01:03;;;;;;;10.18;4.75;;;24.30;71.00;;;;;;6274686;27;80744;-68
2022/05/21 07:04:04;;;;;;;7.05;3.88;;;24.30;71.40;;;;;;6278236;27;80362;-68
2022/05/21 07:10:24;;;;;;;9.80;4.40;;;24.30;71.00;;;;;;6281193;27;80489;-65
2022/05/21 07:13:24;;;;;;;7.82;4.55;;;24.40;70.90;;;;;;6287474;27;80788;-69
2022/05/21 07:16:25;;;;;;;7.55;3.70;;;24.40;70.80;;;;;;6286651;27;80552;-75
2022/05/21 07:19:25;;;;;;;9.52;4.22;;;24.40;70.40;;;;;;6274259;27;80387;-65
2022/05/21 07:22:26;;;;;;;35.03;14.20;;;24.60;70.10;;;;;;6270258;27;81792;-64
2022/05/21 07:25:26;;;;;;;78.28;32.60;;;24.70;69.80;;;;;;6266851;27;83472;-68
2022/05/21 07:28:27;;;;;;;184.25;79.20;;;24.70;68.60;;;;;;6276850;27;84452;-68
2022/05/21 07:31:27;;;;;;;46.90;21.27;;;24.60;69.80;;;;;;6278221;27;83993;-69
2022/05/21 07:34:28;;;;;;;24.90;10.65;;;24.60;68.30;;;;;;6283560;27;83888;-69
2022/05/21 07:37:28;;;;;;;37.00;15.57;;;24.50;65.30;;;;;;6281264;27;84613;-68
2022/05/21 07:40:29;;;;;;;78.47;33.72;;;24.50;64.10;;;;;;6283537;27;84564;-68
2022/05/21 07:43:30;;;;;;;84.88;33.83;;;24.50;63.90;;;;;;6269212;27;86115;-70
2022/05/21 07:46:31;;;;;;;43.92;20.05;;;24.60;63.60;;;;;;6280568;27;82993;-71
2022/05/21 07:49:31;;;;;;;33.70;13.38;;;24.60;62.70;;;;;;6275281;27;83004;-71
2022/05/21 07:52:32;;;;;;;19.38;7.13;;;24.60;61.70;;;;;;6274055;27;84075;-69
2022/05/21 07:55:34;;;;;;;12.68;4.30;;;24.60;59.80;;;;;;6270422;27;84268;-70
2022/05/21 07:58:35;;;;;;;15.52;3.95;;;24.50;58.60;;;;;;6267435;27;81542;-70
2022/05/21 08:01:36;;;;;;;7.05;3.22;;;24.50;58.20;;;;;;6264678;27;80845;-68
2022/05/21 08:04:36;;;;;;;5.10;2.60;;;24.40;57.80;;;;;;6266312;27;81149;-70
2022/05/21 08:07:37;;;;;;;2.60;2.33;;;24.40;56.80;;;;;;6262962;27;82184;-68
2022/05/21 08:10:37;;;;;;;4.80;2.13;;;24.30;56.50;;;;;;6273410;27;80251;-68
2022/05/21 08:13:39;;;;;;;4.72;2.58;;;24.40;56.40;;;;;;6263310;27;80417;-68
2022/05/21 08:16:40;;;;;;;10.88;2.35;;;24.40;56.20;;;;;;6260635;27;80954;-68
2022/05/21 08:19:41;;;;;;;10.43;2.63;;;24.40;55.30;;;;;;6284035;27;80956;-68
2022/05/21 08:29:20;;;;;;;19.50;2.92;;;24.30;52.00;;;;;;6278912;27;80394;-68
2022/05/21 08:32:21;;;;;;;12.07;1.92;;;24.30;52.30;;;;;;6280285;27;81938;-69
2022/05/21 08:35:22;;;;;;;21.75;3.05;;;24.40;52.50;;;;;;6285197;27;81385;-71
2022/05/21 08:38:22;;;;;;;6.60;2.30;;;24.50;51.90;;;;;;6285590;27;80541;-70
2022/05/21 08:41:24;;;;;;;7.00;1.70;;;24.60;52.00;;;;;;6270312;27;82672;-68
2022/05/21 08:44:25;;;;;;;15.68;2.65;;;24.60;52.10;;;;;;6285278;27;80840;-71
2022/05/21 08:47:27;;;;;;;7.25;1.92;;;24.60;52.10;;;;;;6279332;27;82146;-69
2022/05/21 08:50:28;;;;;;;7.13;1.60;;;24.70;51.70;;;;;;6285449;27;81692;-68
2022/05/21 08:53:28;;;;;;;7.20;2.22;;;24.70;51.20;;;;;;6277841;27;81665;-69
2022/05/21 08:56:29;;;;;;;9.35;2.30;;;24.70;51.30;;;;;;6283387;27;81556;-68
2022/05/21 08:59:29;;;;;;;4.53;1.42;;;24.70;50.80;;;;;;6277015;27;81014;-70
2022/05/21 09:02:30;;;;;;;4.20;1.65;;;24.80;51.20;;;;;;6284044;27;80854;-70
2022/05/21 09:05:31;;;;;;;3.67;1.42;;;24.70;49.70;;;;;;6285592;27;80543;-68
2022/05/21 09:08:31;;;;;;;9.07;2.00;;;24.70;50.50;;;;;;6278454;27;80447;-68
2022/05/21 09:11:34;;;;;;;5.28;1.75;;;24.70;50.30;;;;;;6265965;27;80188;-68
2022/05/21 09:14:34;;;;;;;7.75;1.70;;;24.80;49.90;;;;;;6279758;27;80315;-67
2022/05/21 09:17:35;;;;;;;7.60;1.77;;;24.80;49.90;;;;;;6285061;27;80439;-67
2022/05/21 09:20:35;;;;;;;14.98;1.98;;;24.80;49.20;;;;;;6284811;27;80828;-66
2022/05/21 09:23:36;;;;;;;8.40;1.92;;;24.80;48.80;;;;;;6284780;27;81033;-65
2022/05/21 09:26:36;;;;;;;3.72;1.42;;;24.80;49.10;;;;;;6274341;27;80286;-73
2022/05/21 09:29:37;;;;;;;3.92;1.50;;;24.90;49.40;;;;;;6267003;27;80782;-73
2022/05/21 09:32:37;;;;;;;4.38;1.50;;;24.90;49.50;;;;;;6273375;27;80736;-66
2022/05/21 09:35:38;;;;;;;4.78;1.38;;;24.90;48.60;;;;;;6283133;27;80330;-65
2022/05/21 09:38:38;;;;;;;5.72;1.58;;;24.90;48.60;;;;;;6284817;27;80479;-68
2022/05/21 09:41:39;;;;;;;3.47;1.80;;;24.90;48.60;;;;;;6279128;27;80200;-74
2022/05/21 09:47:59;;;;;;;8.07;1.55;;;25.00;48.70;;;;;;6274725;27;80393;-72
2022/05/21 09:51:00;;;;;;;3.72;1.58;;;25.00;48.60;;;;;;6281773;27;80462;-71
2022/05/21 09:54:01;;;;;;;7.55;2.15;;;25.00;48.50;;;;;;6284245;27;81561;-73
2022/05/21 09:57:01;;;;;;;9.23;1.52;;;25.00;48.60;;;;;;6284467;27;80709;-71
2022/05/21 10:00:02;;;;;;;9.15;1.60;;;25.10;48.80;;;;;;6273786;27;80367;-70
2022/05/21 10:03:13;;;;;;;13.45;2.40;;;25.10;49.90;;;;;;6271528;27;81369;-71
2022/05/21 10:06:13;;;;;;;11.65;2.13;;;25.10;49.60;;;;;;6270414;27;80609;-68
2022/05/21 10:12:33;;;;;;;8.30;1.60;;;25.00;47.90;;;;;;6282441;27;81979;-72
2022/05/21 10:15:34;;;;;;;9.98;1.80;;;25.00;46.70;;;;;;6283730;27;80065;-70
2022/05/21 10:18:34;;;;;;;7.78;1.40;;;25.00;47.10;;;;;;6283890;27;80827;-69
2022/05/21 10:21:35;;;;;;;5.50;1.45;;;25.10;48.40;;;;;;6282267;27;81935;-71
2022/05/21 10:24:36;;;;;;;6.53;2.15;;;25.10;48.20;;;;;;6283693;27;80058;-72
2022/05/21 10:27:39;;;;;;;5.43;1.83;;;25.00;47.40;;;;;;6284166;27;84439;-70
2022/05/21 10:30:40;;;;;;;5.30;1.23;;;25.00;46.70;;;;;;6284025;27;80922;-71
2022/05/21 10:33:40;;;;;;;1.65;1.00;;;25.00;46.50;;;;;;6280767;27;80546;-73
2022/05/21 10:36:41;;;;;;;7.60;1.25;;;25.00;46.70;;;;;;6283254;27;80261;-69
2022/05/21 10:39:41;;;;;;;5.18;1.20;;;25.00;46.10;;;;;;6284045;27;81598;-74
2022/05/21 10:42:42;;;;;;;5.72;1.33;;;24.90;44.60;;;;;;6281111;27;81375;-69
2022/05/21 10:45:42;;;;;;;5.30;1.67;;;24.90;43.40;;;;;;6267633;27;82039;-72
2022/05/21 10:48:43;;;;;;;2.38;1.10;;;24.90;43.00;;;;;;6283554;27;80546;-71
2022/05/21 10:51:43;;;;;;;2.83;1.23;;;24.90;42.80;;;;;;6284082;27;80996;-71
2022/05/21 10:54:44;;;;;;;2.90;1.00;;;24.90;42.60;;;;;;6284118;27;80343;-70
2022/05/21 10:57:44;;;;;;;1.20;1.10;;;24.80;42.90;;;;;;6282972;27;82061;-72
2022/05/21 11:00:45;;;;;;;7.43;1.40;;;24.90;42.90;;;;;;6279174;27;80418;-72
2022/05/21 11:03:45;;;;;;;10.25;1.17;;;24.90;43.00;;;;;;6279811;27;80578;-71
2022/05/21 11:06:46;;;;;;;3.30;1.20;;;24.80;42.20;;;;;;6274378;27;80770;-68
2022/05/21 11:09:46;;;;;;;3.13;1.30;;;24.90;42.40;;;;;;6273816;27;82045;-73
2022/05/21 11:12:47;;;;;;;3.40;1.15;;;24.90;42.80;;;;;;6284991;27;80947;-72
2022/05/21 11:15:47;;;;;;;4.43;1.48;;;24.90;43.00;;;;;;6276546;27;80767;-74
2022/05/21 11:18:48;;;;;;;4.70;1.27;;;24.90;42.30;;;;;;6286465;27;80223;-73
2022/05/21 11:21:50;;;;;;;2.15;1.00;;;24.80;42.30;;;;;;6283614;27;80391;-74
2022/05/21 11:24:51;;;;;;;3.58;1.65;;;24.80;41.90;;;;;;6283585;27;80383;-73
2022/05/21 11:27:51;;;;;;;4.45;1.20;;;24.70;42.10;;;;;;6283056;27;80168;-73
2022/05/21 11:30:52;;;;;;;6.75;1.40;;;24.70;42.50;;;;;;6270149;27;81600;-70
2022/05/21 11:37:21;;;;;;;9.40;1.40;;;24.80;43.10;;;;;;6275087;27;81534;-69
2022/05/21 11:40:22;;;;;;;5.55;1.98;;;24.80;42.90;;;;;;6282644;27;81464;-68
2022/05/21 11:43:22;;;;;;;2.05;1.10;;;24.90;43.20;;;;;;6282967;27;80879;-72
2022/05/21 11:46:23;;;;;;;4.35;2.05;;;24.90;43.40;;;;;;6273823;27;84095;-70
2022/05/21 11:49:23;;;;;;;4.95;1.35;;;25.00;43.60;;;;;;6282882;27;81631;-74
2022/05/21 11:52:24;;;;;;;4.35;1.33;;;25.00;43.40;;;;;;6280425;27;80127;-73
2022/05/21 11:55:27;;;;;;;2.20;1.20;;;25.00;42.70;;;;;;6284847;27;80591;-72
2022/05/21 11:58:27;;;;;;;2.35;1.10;;;25.00;42.70;;;;;;6278441;27;80807;-72
2022/05/21 12:01:28;;;;;;;3.58;1.95;;;25.00;42.80;;;;;;6283178;27;81631;-71
2022/05/21 12:04:29;;;;;;;8.18;3.45;;;25.00;42.90;;;;;;6286471;27;80264;-68
2022/05/21 12:07:29;;;;;;;10.40;3.40;;;25.10;44.10;;;;;;6285768;27;80560;-69
2022/05/21 12:10:30;;;;;;;6.20;3.10;;;25.20;44.40;;;;;;6286271;27;81625;-69
2022/05/21 12:13:30;;;;;;;7.25;2.22;;;25.20;43.50;;;;;;6286157;27;80289;-69
2022/05/21 12:16:31;;;;;;;6.43;3.55;;;25.30;43.90;;;;;;6285213;27;81444;-70
2022/05/21 12:19:31;;;;;;;11.18;3.45;;;25.30;44.80;;;;;;6285778;27;80654;-71
2022/05/21 12:22:32;;;;;;;5.72;4.82;;;25.30;45.50;;;;;;6286148;27;80840;-72
2022/05/21 12:25:32;;;;;;;10.90;5.38;;;25.40;47.00;;;;;;6286180;27;80212;-70
2022/05/21 12:28:33;;;;;;;8.00;4.93;;;25.40;47.90;;;;;;6286056;27;81317;-70
2022/05/21 12:31:34;;;;;;;8.43;4.38;;;25.40;47.90;;;;;;6283479;27;80350;-72
2022/05/21 12:34:34;;;;;;;4.63;3.13;;;25.40;48.30;;;;;;6277711;27;81698;-72
2022/05/21 12:37:35;;;;;;;5.30;2.50;;;25.40;47.20;;;;;;6272579;27;81618;-72
2022/05/21 12:40:36;;;;;;;4.43;1.60;;;25.40;46.10;;;;;;6284048;27;80387;-72
2022/05/21 12:43:37;;;;;;;2.47;1.65;;;25.30;44.30;;;;;;6279542;27;81532;-70
2022/05/21 12:46:37;;;;;;;4.05;1.58;;;25.30;43.90;;;;;;6278678;27;81847;-71
2022/05/21 12:49:38;;;;;;;1.80;1.38;;;25.30;43.70;;;;;;6274698;27;80437;-71
2022/05/21 12:52:38;;;;;;;6.35;1.67;;;25.30;42.70;;;;;;6268322;27;80706;-71
2022/05/21 12:55:39;;;;;;;4.05;2.10;;;25.40;44.50;;;;;;6270164;27;81814;-70
2022/05/21 12:58:39;;;;;;;4.35;2.22;;;25.40;44.70;;;;;;6272037;27;80579;-70
2022/05/21 13:01:43;;;;;;;7.25;2.50;;;25.40;46.00;;;;;;6269551;27;80677;-71
2022/05/21 13:04:45;;;;;;;2.58;2.30;;;25.50;46.40;;;;;;6272251;27;80668;-70
2022/05/21 13:07:45;;;;;;;1.77;1.55;;;25.50;46.30;;;;;;6272756;27;80553;-71
2022/05/21 13:10:46;;;;;;;8.60;2.10;;;25.50;44.30;;;;;;6268944;27;80438;-72
2022/05/21 13:13:46;;;;;;;3.95;2.88;;;25.40;44.20;;;;;;6270679;27;80555;-71
2022/05/21 13:16:47;;;;;;;4.05;2.00;;;25.40;44.10;;;;;;6288282;27;80340;-74
2022/05/21 13:19:50;;;;;;;3.05;1.60;;;25.40;43.30;;;;;;6294038;27;82111;-74
2022/05/21 13:22:50;;;;;;;6.60;1.70;;;25.30;43.20;;;;;;6281713;27;80763;-74
2022/05/21 13:25:51;;;;;;;4.93;1.40;;;25.30;42.70;;;;;;6279934;27;80732;-74
2022/05/21 13:28:51;;;;;;;4.35;1.70;;;25.30;42.40;;;;;;6272894;27;80173;-72
2022/05/21 13:31:52;;;;;;;4.38;1.48;;;25.20;43.60;;;;;;6271846;27;82296;-70
2022/05/21 13:34:52;;;;;;;5.25;1.33;;;25.20;42.40;;;;;;6276576;27;81342;-71
2022/05/21 13:37:53;;;;;;;3.90;1.50;;;25.20;42.00;;;;;;6284919;27;80182;-70
2022/05/21 13:40:54;;;;;;;2.15;1.52;;;25.20;42.30;;;;;;6281500;27;81339;-71
2022/05/21 13:43:54;;;;;;;7.30;1.73;;;25.20;42.40;;;;;;6280537;27;81529;-71
2022/05/21 13:46:55;;;;;;;5.45;1.70;;;25.20;42.30;;;;;;6268160;27;81590;-69
2022/05/21 13:49:56;;;;;;;4.45;1.10;;;25.20;41.60;;;;;;6275601;27;80270;-69
2022/05/21 13:52:58;;;;;;;4.63;1.33;;;25.10;41.20;;;;;;6259054;27;80217;-68
2022/05/21 13:55:59;;;;;;;12.02;1.75;;;25.10;40.90;;;;;;6267225;27;80590;-69
2022/05/21 13:59:00;;;;;;;2.33;1.45;;;25.00;40.90;;;;;;6270096;27;80714;-70
2022/05/21 14:02:00;;;;;;;4.13;1.45;;;24.90;40.90;;;;;;6258878;27;82808;-70
2022/05/21 14:05:00;;;;;;;3.78;1.35;;;24.90;41.10;;;;;;6262082;27;80674;-69
2022/05/21 14:08:01;;;;;;;4.25;1.40;;;24.90;40.90;;;;;;6259768;27;80229;-69
2022/05/21 14:11:01;;;;;;;4.60;1.77;;;24.90;40.80;;;;;;6269580;27;80464;-69
2022/05/21 14:14:02;;;;;;;1.35;1.25;;;24.80;40.80;;;;;;6261965;27;81623;-69
2022/05/21 14:17:03;;;;;;;1.38;1.10;;;24.80;40.50;;;;;;6283805;27;81371;-70
2022/05/21 14:20:03;;;;;;;2.80;1.30;;;24.80;40.50;;;;;;6273416;27;80526;-71
2022/05/21 14:23:04;;;;;;;1.30;1.02;;;24.80;40.30;;;;;;6269811;27;81121;-71
2022/05/21 14:26:04;;;;;;;3.80;1.27;;;24.80;40.40;;;;;;6282229;27;81514;-74
2022/05/21 14:29:05;;;;;;;8.45;1.50;;;24.80;39.90;;;;;;6283979;27;80896;-75
2022/05/21 14:32:05;;;;;;;4.20;1.27;;;24.70;39.90;;;;;;6283543;27;82022;-70
2022/05/21 14:35:06;;;;;;;4.45;1.02;;;24.70;40.00;;;;;;6283370;27;81888;-73
2022/05/21 14:38:06;;;;;;;5.10;1.60;;;24.80;40.40;;;;;;6283419;27;80796;-72
2022/05/21 14:41:07;;;;;;;6.32;1.35;;;24.90;40.80;;;;;;6283190;27;81062;-71
2022/05/21 14:44:07;;;;;;;8.38;1.48;;;24.90;40.60;;;;;;6281732;27;81440;-71
2022/05/21 14:53:46;;;;;;;15.70;2.22;;;25.00;41.30;;;;;;6271573;27;82526;-71
2022/05/21 14:56:47;;;;;;;1.63;1.15;;;25.10;41.50;;;;;;6283120;27;80415;-70
2022/05/21 14:59:47;;;;;;;4.40;1.50;;;25.10;41.50;;;;;;6283682;27;80246;-68
2022/05/21 15:02:48;;;;;;;8.90;1.60;;;25.10;41.00;;;;;;6279554;27;80591;-71
2022/05/21 15:05:49;;;;;;;3.63;2.03;;;25.10;40.70;;;;;;6265403;27;80539;-73
2022/05/21 15:08:51;;;;;;;69.40;23.88;;;25.20;40.80;;;;;;6263756;27;81622;-73
2022/05/21 15:11:52;;;;;;;92.72;30.15;;;25.20;40.80;;;;;;6261667;27;83630;-73
2022/05/21 15:14:52;;;;;;;73.88;25.92;;;25.10;39.70;;;;;;6272135;27;82947;-71
2022/05/21 15:17:53;;;;;;;43.53;15.13;;;25.10;40.50;;;;;;6266951;27;85790;-71
2022/05/21 15:20:54;;;;;;;39.70;13.38;;;25.10;40.00;;;;;;6264453;27;83669;-74
2022/05/21 15:23:55;;;;;;;31.60;10.82;;;25.10;40.10;;;;;;6285334;27;83015;-71
2022/05/21 15:26:56;;;;;;;48.38;15.10;;;25.10;40.20;;;;;;6299613;27;84213;-75
2022/05/21 15:29:56;;;;;;;68.22;28.55;;;25.10;40.60;;;;;;6293633;27;82991;-75
2022/05/21 15:32:57;;;;;;;176.50;70.10;;;25.10;40.40;;;;;;6284019;27;85110;-76
2022/05/21 15:35:57;;;;;;;243.43;93.65;;;25.10;40.10;;;;;;6285228;27;83398;-74
2022/05/21 15:38:58;;;;;;;122.13;49.55;;;25.10;40.20;;;;;;6284445;27;84563;-70
2022/05/21 15:42:00;;;;;;;107.43;37.58;;;25.10;40.00;;;;;;6285156;27;82882;-72
2022/05/21 15:45:01;;;;;;;41.75;17.77;;;25.10;40.10;;;;;;6281243;27;83157;-72
2022/05/21 15:48:01;;;;;;;18.33;5.82;;;25.10;40.70;;;;;;6284199;27;83011;-67
2022/05/21 15:51:02;;;;;;;15.68;4.82;;;25.10;39.50;;;;;;6288618;27;82941;-71
2022/05/21 15:54:02;;;;;;;18.98;4.57;;;25.00;39.60;;;;;;6287287;27;80267;-67
2022/05/21 15:57:03;;;;;;;11.68;4.18;;;25.00;39.70;;;;;;6286084;27;81128;-72
2022/05/21 16:00:04;;;;;;;9.48;2.25;;;25.00;40.30;;;;;;6283149;27;80537;-71
2022/05/21 16:03:12;;;;;;;6.10;2.55;;;25.00;40.20;;;;;;6286740;27;79952;-71
2022/05/21 16:06:13;;;;;;;5.05;2.85;;;25.00;40.40;;;;;;6262899;27;81603;-71
2022/05/21 16:09:13;;;;;;;7.85;2.63;;;25.00;40.70;;;;;;6263401;27;80717;-70
2022/05/21 16:12:14;;;;;;;3.53;2.10;;;25.00;41.00;;;;;;6262833;27;80758;-72
2022/05/21 16:15:14;;;;;;;6.75;2.50;;;25.00;41.60;;;;;;6275046;27;82005;-68